AUL1347 ULLI-ULAA
Flight info
| Callsign | AUL1347 |
|---|---|
| Flight time | 1h 18m |
| Altitude | 33000 |
| Route | PETAP1D PETAP T821 MAKOG MAKOG3M |
| Aircraft | B738/M-SDE2E3FGHIRWXY/LB1 |
Departure
| Time | 2026-04-20 18:47 |
|---|---|
| Airport | Pulkovo Airport (ULLI) |
Arrival
| Time | 2026-04-20 20:05 |
|---|---|
| Airport | Talagi Airport (ULAA) |
| Time | Latitude | Longitude | Altitude | Speed | Heading |
|---|---|---|---|---|---|
| 2026-04-20 18:11 | 59.79859 | 30.26318 | 84 ft | 0 kts | 105° |
| 2026-04-20 18:40 | 59.79857 | 30.26331 | 79 ft | 3 kts | 106° |
| 2026-04-20 18:40 | 59.79852 | 30.26401 | 79 ft | 7 kts | 76° |
| 2026-04-20 18:40 | 59.79902 | 30.26461 | 71 ft | 11 kts | 16° |
| 2026-04-20 18:40 | 59.79995 | 30.26520 | 75 ft | 17 kts | 18° |
| 2026-04-20 18:41 | 59.80122 | 30.26592 | 74 ft | 21 kts | 16° |
| 2026-04-20 18:41 | 59.80278 | 30.26682 | 66 ft | 25 kts | 16° |
| 2026-04-20 18:41 | 59.80420 | 30.26710 | 67 ft | 18 kts | 307° |
| 2026-04-20 18:41 | 59.80455 | 30.26480 | 70 ft | 17 kts | 286° |
| 2026-04-20 18:42 | 59.80490 | 30.26249 | 71 ft | 18 kts | 287° |
| 2026-04-20 18:42 | 59.80529 | 30.25985 | 69 ft | 23 kts | 287° |
| 2026-04-20 18:42 | 59.80577 | 30.25664 | 62 ft | 24 kts | 287° |
| 2026-04-20 18:42 | 59.80622 | 30.25357 | 65 ft | 23 kts | 286° |
| 2026-04-20 18:43 | 59.80667 | 30.25060 | 66 ft | 22 kts | 287° |
| 2026-04-20 18:43 | 59.80704 | 30.24803 | 66 ft | 14 kts | 286° |
| 2026-04-20 18:43 | 59.80743 | 30.24630 | 68 ft | 14 kts | 313° |
| 2026-04-20 18:43 | 59.80794 | 30.24595 | 62 ft | 1 kts | 346° |
| 2026-04-20 18:44 | 59.80801 | 30.24591 | 65 ft | 1 kts | 346° |
| 2026-04-20 18:44 | 59.80808 | 30.24588 | 67 ft | 1 kts | 346° |
| 2026-04-20 18:44 | 59.80814 | 30.24585 | 67 ft | 1 kts | 346° |
| 2026-04-20 18:44 | 59.80821 | 30.24582 | 67 ft | 1 kts | 346° |
| 2026-04-20 18:45 | 59.80827 | 30.24579 | 67 ft | 1 kts | 346° |
| 2026-04-20 18:45 | 59.80845 | 30.24570 | 68 ft | 6 kts | 346° |
| 2026-04-20 18:45 | 59.80913 | 30.24551 | 64 ft | 14 kts | 2° |
| 2026-04-20 18:45 | 59.80949 | 30.24685 | 65 ft | 0 kts | 104° |
| 2026-04-20 18:46 | 59.80947 | 30.24694 | 66 ft | 3 kts | 104° |
| 2026-04-20 18:46 | 59.80930 | 30.24825 | 69 ft | 28 kts | 105° |
| 2026-04-20 18:46 | 59.80809 | 30.25668 | 70 ft | 100 kts | 108° |
| 2026-04-20 18:46 | 59.80548 | 30.27428 | 98 ft | 160 kts | 104° |
| 2026-04-20 18:47 | 59.80245 | 30.29592 | 866 ft | 159 kts | 103° |
| 2026-04-20 18:47 | 59.79937 | 30.31592 | 2029 ft | 145 kts | 102° |
| 2026-04-20 18:47 | 59.79636 | 30.33626 | 2502 ft | 166 kts | 98° |
| 2026-04-20 18:47 | 59.79308 | 30.36007 | 2774 ft | 191 kts | 101° |
| 2026-04-20 18:48 | 59.78903 | 30.38674 | 3043 ft | 209 kts | 101° |
| 2026-04-20 18:48 | 59.78474 | 30.41478 | 3471 ft | 215 kts | 101° |
| 2026-04-20 18:48 | 59.78037 | 30.44326 | 3481 ft | 216 kts | 101° |
| 2026-04-20 18:48 | 59.77597 | 30.47207 | 3466 ft | 219 kts | 101° |
| 2026-04-20 18:49 | 59.77161 | 30.50085 | 3499 ft | 217 kts | 101° |
| 2026-04-20 18:49 | 59.76806 | 30.52989 | 3590 ft | 216 kts | 86° |
| 2026-04-20 18:49 | 59.77178 | 30.55795 | 4253 ft | 210 kts | 58° |
| 2026-04-20 18:49 | 59.78149 | 30.57904 | 5080 ft | 209 kts | 35° |
| 2026-04-20 18:50 | 59.79535 | 30.58950 | 5594 ft | 228 kts | 9° |
| 2026-04-20 18:50 | 59.81183 | 30.58372 | 5977 ft | 255 kts | 341° |
| 2026-04-20 18:50 | 59.82737 | 30.56544 | 6693 ft | 264 kts | 331° |
| 2026-04-20 18:50 | 59.84231 | 30.54380 | 7405 ft | 268 kts | 329° |
| 2026-04-20 18:51 | 59.85727 | 30.52127 | 8101 ft | 272 kts | 329° |
| 2026-04-20 18:51 | 59.87243 | 30.49838 | 8814 ft | 275 kts | 329° |
| 2026-04-20 18:51 | 59.88780 | 30.47532 | 9518 ft | 278 kts | 329° |
| 2026-04-20 18:51 | 59.90338 | 30.45209 | 10230 ft | 282 kts | 329° |
| 2026-04-20 18:52 | 59.91938 | 30.42838 | 10640 ft | 295 kts | 329° |
| 2026-04-20 18:52 | 59.93651 | 30.40318 | 10808 ft | 317 kts | 329° |
| 2026-04-20 18:52 | 59.95482 | 30.37626 | 10972 ft | 337 kts | 329° |
| 2026-04-20 18:52 | 59.97422 | 30.34769 | 11115 ft | 356 kts | 328° |
| 2026-04-20 18:53 | 59.99464 | 30.31755 | 11292 ft | 373 kts | 328° |
| 2026-04-20 18:53 | 60.01573 | 30.28630 | 11729 ft | 380 kts | 328° |
| 2026-04-20 18:53 | 60.03706 | 30.25461 | 12351 ft | 383 kts | 328° |
| 2026-04-20 18:53 | 60.05844 | 30.22282 | 12975 ft | 385 kts | 328° |
| 2026-04-20 18:54 | 60.08012 | 30.19056 | 13592 ft | 389 kts | 328° |
| 2026-04-20 18:54 | 60.10190 | 30.15815 | 14197 ft | 393 kts | 328° |
| 2026-04-20 18:54 | 60.12396 | 30.12530 | 14775 ft | 396 kts | 328° |
| 2026-04-20 18:54 | 60.14611 | 30.09225 | 15386 ft | 398 kts | 328° |
| 2026-04-20 18:55 | 60.16840 | 30.05894 | 15987 ft | 401 kts | 328° |
| 2026-04-20 18:55 | 60.19090 | 30.02526 | 16572 ft | 404 kts | 328° |
| 2026-04-20 18:55 | 60.21355 | 29.99130 | 17143 ft | 408 kts | 328° |
| 2026-04-20 18:55 | 60.23637 | 29.95704 | 17718 ft | 411 kts | 328° |
| 2026-04-20 18:56 | 60.25937 | 29.92253 | 18278 ft | 414 kts | 330° |
| 2026-04-20 18:56 | 60.28457 | 29.89602 | 18761 ft | 406 kts | 348° |
| 2026-04-20 18:56 | 60.31208 | 29.88809 | 19278 ft | 397 kts | 5° |
| 2026-04-20 18:56 | 60.33904 | 29.89705 | 19807 ft | 392 kts | 21° |
| 2026-04-20 18:57 | 60.36348 | 29.92073 | 20288 ft | 390 kts | 34° |
| 2026-04-20 18:57 | 60.38395 | 29.95544 | 20742 ft | 392 kts | 49° |
| 2026-04-20 18:57 | 60.39958 | 30.00058 | 21226 ft | 394 kts | 57° |
| 2026-04-20 18:57 | 60.41367 | 30.04835 | 21690 ft | 397 kts | 58° |
| 2026-04-20 18:58 | 60.42755 | 30.09686 | 22122 ft | 399 kts | 58° |
| 2026-04-20 18:58 | 60.44149 | 30.14565 | 22555 ft | 402 kts | 58° |
| 2026-04-20 18:58 | 60.45561 | 30.19463 | 23000 ft | 404 kts | 58° |
| 2026-04-20 18:58 | 60.47007 | 30.24447 | 23424 ft | 406 kts | 58° |
| 2026-04-20 18:59 | 60.48449 | 30.29393 | 23839 ft | 408 kts | 58° |
| 2026-04-20 18:59 | 60.49896 | 30.34353 | 24185 ft | 410 kts | 58° |
| 2026-04-20 18:59 | 60.51352 | 30.39347 | 24535 ft | 411 kts | 58° |
| 2026-04-20 18:59 | 60.52789 | 30.44283 | 24884 ft | 412 kts | 58° |
| 2026-04-20 19:00 | 60.54249 | 30.49309 | 25226 ft | 414 kts | 58° |
| 2026-04-20 19:00 | 60.55709 | 30.54348 | 25547 ft | 415 kts | 58° |
| 2026-04-20 19:00 | 60.57178 | 30.59433 | 25859 ft | 417 kts | 58° |
| 2026-04-20 19:00 | 60.58649 | 30.64529 | 26172 ft | 418 kts | 58° |
| 2026-04-20 19:01 | 60.60122 | 30.69637 | 26468 ft | 420 kts | 58° |
| 2026-04-20 19:01 | 60.61599 | 30.74769 | 26847 ft | 419 kts | 58° |
| 2026-04-20 19:01 | 60.63063 | 30.79868 | 27335 ft | 416 kts | 58° |
| 2026-04-20 19:01 | 60.64516 | 30.84941 | 27836 ft | 412 kts | 58° |
| 2026-04-20 19:02 | 60.65955 | 30.89972 | 28306 ft | 410 kts | 58° |
| 2026-04-20 19:02 | 60.67390 | 30.95000 | 28727 ft | 409 kts | 58° |
| 2026-04-20 19:02 | 60.68814 | 30.99999 | 29167 ft | 408 kts | 58° |
| 2026-04-20 19:02 | 60.70236 | 31.04999 | 29608 ft | 406 kts | 58° |
| 2026-04-20 19:03 | 60.71646 | 31.09974 | 30048 ft | 404 kts | 57° |
| 2026-04-20 19:03 | 60.73052 | 31.14941 | 30425 ft | 403 kts | 58° |
| 2026-04-20 19:03 | 60.74449 | 31.19889 | 30781 ft | 402 kts | 58° |
| 2026-04-20 19:03 | 60.75845 | 31.24842 | 31062 ft | 402 kts | 58° |
| 2026-04-20 19:04 | 60.77240 | 31.29804 | 31336 ft | 403 kts | 58° |
| 2026-04-20 19:04 | 60.78636 | 31.34777 | 31613 ft | 403 kts | 58° |
| 2026-04-20 19:04 | 60.80026 | 31.39747 | 31916 ft | 402 kts | 58° |
| 2026-04-20 19:04 | 60.81416 | 31.44718 | 32204 ft | 402 kts | 58° |
| 2026-04-20 19:05 | 60.82806 | 31.49704 | 32447 ft | 403 kts | 58° |
| 2026-04-20 19:05 | 60.84196 | 31.54700 | 32656 ft | 404 kts | 58° |
| 2026-04-20 19:05 | 60.85587 | 31.59711 | 32900 ft | 405 kts | 58° |
| 2026-04-20 19:05 | 60.86976 | 31.64730 | 33179 ft | 404 kts | 58° |
| 2026-04-20 19:06 | 60.89288 | 31.73101 | 33269 ft | 406 kts | 58° |
| 2026-04-20 19:06 | 60.92058 | 31.83170 | 33271 ft | 404 kts | 58° |
| 2026-04-20 19:07 | 60.94812 | 31.93221 | 33261 ft | 403 kts | 58° |
| 2026-04-20 19:07 | 60.97823 | 32.02889 | 33263 ft | 400 kts | 49° |
| 2026-04-20 19:08 | 61.03749 | 32.14969 | 33269 ft | 400 kts | 44° |
| 2026-04-20 19:09 | 61.07753 | 32.22955 | 33265 ft | 400 kts | 44° |
| 2026-04-20 19:09 | 61.11745 | 32.30996 | 33266 ft | 401 kts | 44° |
| 2026-04-20 19:10 | 61.15736 | 32.39080 | 33267 ft | 402 kts | 44° |
| 2026-04-20 19:10 | 61.19729 | 32.47200 | 33272 ft | 402 kts | 44° |
| 2026-04-20 19:11 | 61.23721 | 32.55343 | 33265 ft | 403 kts | 44° |
| 2026-04-20 19:11 | 61.27716 | 32.63507 | 33261 ft | 403 kts | 43° |
| 2026-04-20 19:12 | 61.31769 | 32.71559 | 33265 ft | 403 kts | 43° |
| 2026-04-20 19:12 | 61.35835 | 32.79611 | 33268 ft | 403 kts | 43° |
| 2026-04-20 19:13 | 61.39890 | 32.87703 | 33263 ft | 403 kts | 43° |
| 2026-04-20 19:13 | 61.43910 | 32.95764 | 33266 ft | 404 kts | 43° |
| 2026-04-20 19:14 | 61.47912 | 33.04009 | 33262 ft | 405 kts | 47° |
| 2026-04-20 19:14 | 61.51396 | 33.13286 | 33264 ft | 406 kts | 50° |
| 2026-04-20 19:15 | 61.54842 | 33.22660 | 33265 ft | 406 kts | 50° |
| 2026-04-20 19:15 | 61.58298 | 33.32046 | 33263 ft | 406 kts | 50° |
| 2026-04-20 19:16 | 61.61758 | 33.41450 | 33264 ft | 407 kts | 50° |
| 2026-04-20 19:16 | 61.65216 | 33.50876 | 33258 ft | 407 kts | 50° |
| 2026-04-20 19:17 | 61.68670 | 33.60333 | 33262 ft | 408 kts | 50° |
| 2026-04-20 19:17 | 61.72121 | 33.69819 | 33259 ft | 408 kts | 50° |
| 2026-04-20 19:18 | 61.75568 | 33.79335 | 33266 ft | 408 kts | 50° |
| 2026-04-20 19:18 | 61.79014 | 33.88887 | 33260 ft | 409 kts | 50° |
| 2026-04-20 19:19 | 61.82451 | 33.98456 | 33269 ft | 409 kts | 50° |
| 2026-04-20 19:19 | 61.85889 | 34.08059 | 33263 ft | 409 kts | 50° |
| 2026-04-20 19:20 | 61.89514 | 34.17324 | 33264 ft | 407 kts | 41° |
| 2026-04-20 19:20 | 61.93839 | 34.25032 | 33265 ft | 406 kts | 38° |
| 2026-04-20 19:21 | 61.98162 | 34.32647 | 33264 ft | 407 kts | 38° |
| 2026-04-20 19:21 | 62.02500 | 34.40373 | 33264 ft | 407 kts | 38° |
| 2026-04-20 19:22 | 62.06831 | 34.48147 | 33254 ft | 407 kts | 38° |
| 2026-04-20 19:22 | 62.11163 | 34.55961 | 33255 ft | 408 kts | 38° |
| 2026-04-20 19:23 | 62.15492 | 34.63799 | 33251 ft | 408 kts | 38° |
| 2026-04-20 19:23 | 62.19819 | 34.71664 | 33253 ft | 408 kts | 38° |
| 2026-04-20 19:24 | 62.24048 | 34.79765 | 32100 ft | 413 kts | 41° |
| 2026-04-20 19:24 | 62.25948 | 34.84157 | 31979 ft | 350 kts | 49° |
| 2026-04-20 19:24 | 62.27592 | 34.87476 | 33513 ft | 320 kts | 36° |
| 2026-04-20 19:25 | 62.31283 | 34.93257 | 33473 ft | 336 kts | 34° |
| 2026-04-20 19:25 | 62.33178 | 34.96345 | 33286 ft | 347 kts | 36° |
| 2026-04-20 19:25 | 62.35076 | 34.99660 | 33278 ft | 355 kts | 37° |
| 2026-04-20 19:26 | 62.38910 | 35.06703 | 33264 ft | 369 kts | 38° |
| 2026-04-20 19:26 | 62.42852 | 35.14101 | 33268 ft | 382 kts | 39° |
| 2026-04-20 19:27 | 62.46903 | 35.21790 | 33259 ft | 394 kts | 39° |
| 2026-04-20 19:27 | 62.51067 | 35.29721 | 33260 ft | 404 kts | 39° |
| 2026-04-20 19:28 | 62.55333 | 35.37871 | 33255 ft | 413 kts | 39° |
| 2026-04-20 19:28 | 62.59646 | 35.46142 | 33257 ft | 419 kts | 39° |
| 2026-04-20 19:29 | 62.64013 | 35.54552 | 33251 ft | 420 kts | 39° |
| 2026-04-20 19:29 | 62.68382 | 35.62997 | 33251 ft | 420 kts | 39° |
| 2026-04-20 19:30 | 62.72751 | 35.71478 | 33252 ft | 421 kts | 39° |
| 2026-04-20 19:30 | 62.77111 | 35.79973 | 33255 ft | 420 kts | 39° |
| 2026-04-20 19:31 | 62.81470 | 35.88506 | 33258 ft | 420 kts | 39° |
| 2026-04-20 19:31 | 62.85823 | 35.97055 | 33260 ft | 420 kts | 39° |
| 2026-04-20 19:32 | 62.90171 | 36.05597 | 33260 ft | 420 kts | 39° |
| 2026-04-20 19:32 | 62.94547 | 36.14128 | 33260 ft | 420 kts | 38° |
| 2026-04-20 19:33 | 62.98915 | 36.22673 | 33263 ft | 421 kts | 39° |
| 2026-04-20 19:33 | 63.03283 | 36.31267 | 33264 ft | 421 kts | 39° |
| 2026-04-20 19:34 | 63.07647 | 36.39895 | 33263 ft | 422 kts | 39° |
| 2026-04-20 19:34 | 63.12014 | 36.48566 | 33261 ft | 422 kts | 39° |
| 2026-04-20 19:35 | 63.16378 | 36.57265 | 33262 ft | 423 kts | 39° |
| 2026-04-20 19:35 | 63.20738 | 36.66024 | 33261 ft | 424 kts | 40° |
| 2026-04-20 19:36 | 63.24629 | 36.75945 | 33263 ft | 428 kts | 47° |
| 2026-04-20 19:36 | 63.28394 | 36.86193 | 33267 ft | 429 kts | 47° |
| 2026-04-20 19:37 | 63.32185 | 36.96461 | 33265 ft | 429 kts | 46° |
| 2026-04-20 19:37 | 63.35982 | 37.06738 | 33263 ft | 430 kts | 46° |
| 2026-04-20 19:38 | 63.39780 | 37.17054 | 33265 ft | 431 kts | 47° |
| 2026-04-20 19:38 | 63.43574 | 37.27412 | 33265 ft | 431 kts | 47° |
| 2026-04-20 19:39 | 63.47370 | 37.37825 | 33267 ft | 432 kts | 47° |
| 2026-04-20 19:39 | 63.51163 | 37.48277 | 33262 ft | 433 kts | 47° |
| 2026-04-20 19:40 | 63.54950 | 37.58763 | 33257 ft | 433 kts | 47° |
| 2026-04-20 19:40 | 63.58732 | 37.69284 | 33261 ft | 433 kts | 47° |
| 2026-04-20 19:41 | 63.62511 | 37.79846 | 33261 ft | 434 kts | 47° |
| 2026-04-20 19:41 | 63.66289 | 37.90456 | 33261 ft | 435 kts | 47° |
| 2026-04-20 19:42 | 63.70065 | 38.01111 | 33256 ft | 435 kts | 47° |
| 2026-04-20 19:42 | 63.73840 | 38.11812 | 33255 ft | 436 kts | 48° |
| 2026-04-20 19:43 | 63.77585 | 38.22479 | 33259 ft | 437 kts | 48° |
| 2026-04-20 19:43 | 63.81353 | 38.33266 | 33259 ft | 437 kts | 48° |
| 2026-04-20 19:44 | 63.85123 | 38.44107 | 33255 ft | 438 kts | 48° |
| 2026-04-20 19:44 | 63.88880 | 38.54965 | 33239 ft | 436 kts | 48° |
| 2026-04-20 19:45 | 63.92594 | 38.65757 | 33239 ft | 431 kts | 48° |
| 2026-04-20 19:45 | 63.96273 | 38.76490 | 33256 ft | 430 kts | 49° |
| 2026-04-20 19:45 | 63.98112 | 38.81874 | 32987 ft | 434 kts | 49° |
| 2026-04-20 19:46 | 63.99967 | 38.87316 | 32321 ft | 435 kts | 49° |
| 2026-04-20 19:46 | 64.01818 | 38.92762 | 31620 ft | 434 kts | 49° |
| 2026-04-20 19:46 | 64.03662 | 38.98200 | 30877 ft | 434 kts | 49° |
| 2026-04-20 19:46 | 64.05508 | 39.03658 | 30074 ft | 434 kts | 49° |
| 2026-04-20 19:47 | 64.07194 | 39.09421 | 29180 ft | 439 kts | 58° |
| 2026-04-20 19:47 | 64.08544 | 39.15679 | 28290 ft | 440 kts | 61° |
| 2026-04-20 19:47 | 64.09813 | 39.22026 | 27482 ft | 439 kts | 62° |
| 2026-04-20 19:47 | 64.11067 | 39.28392 | 26648 ft | 438 kts | 62° |
| 2026-04-20 19:48 | 64.12319 | 39.34691 | 26059 ft | 432 kts | 61° |
| 2026-04-20 19:48 | 64.13569 | 39.40898 | 25422 ft | 427 kts | 61° |
| 2026-04-20 19:48 | 64.14818 | 39.47036 | 24812 ft | 423 kts | 61° |
| 2026-04-20 19:48 | 64.16060 | 39.53107 | 24209 ft | 419 kts | 61° |
| 2026-04-20 19:49 | 64.17292 | 39.59130 | 23561 ft | 415 kts | 61° |
| 2026-04-20 19:49 | 64.18510 | 39.65091 | 22885 ft | 411 kts | 61° |
| 2026-04-20 19:49 | 64.19712 | 39.70993 | 22290 ft | 406 kts | 61° |
| 2026-04-20 19:49 | 64.20896 | 39.76829 | 21692 ft | 401 kts | 61° |
| 2026-04-20 19:50 | 64.22065 | 39.82608 | 21097 ft | 397 kts | 62° |
| 2026-04-20 19:50 | 64.23220 | 39.88333 | 20502 ft | 393 kts | 62° |
| 2026-04-20 19:50 | 64.24366 | 39.94019 | 19912 ft | 390 kts | 62° |
| 2026-04-20 19:50 | 64.25496 | 39.99654 | 19341 ft | 387 kts | 62° |
| 2026-04-20 19:51 | 64.26620 | 40.05271 | 18752 ft | 385 kts | 62° |
| 2026-04-20 19:51 | 64.27735 | 40.10867 | 18086 ft | 384 kts | 62° |
| 2026-04-20 19:51 | 64.28840 | 40.16427 | 17494 ft | 380 kts | 62° |
| 2026-04-20 19:51 | 64.29930 | 40.21928 | 16928 ft | 376 kts | 62° |
| 2026-04-20 19:52 | 64.31009 | 40.27385 | 16377 ft | 372 kts | 62° |
| 2026-04-20 19:52 | 64.32074 | 40.32789 | 15806 ft | 369 kts | 62° |
| 2026-04-20 19:52 | 64.33131 | 40.38161 | 15252 ft | 366 kts | 62° |
| 2026-04-20 19:52 | 64.34180 | 40.43504 | 14699 ft | 364 kts | 63° |
| 2026-04-20 19:53 | 64.35218 | 40.48805 | 14150 ft | 362 kts | 63° |
| 2026-04-20 19:53 | 64.36248 | 40.54083 | 13562 ft | 359 kts | 63° |
| 2026-04-20 19:53 | 64.37269 | 40.59322 | 13003 ft | 356 kts | 63° |
| 2026-04-20 19:53 | 64.38278 | 40.64519 | 12461 ft | 353 kts | 63° |
| 2026-04-20 19:54 | 64.39277 | 40.69676 | 11934 ft | 350 kts | 63° |
| 2026-04-20 19:54 | 64.40254 | 40.74730 | 11408 ft | 348 kts | 63° |
| 2026-04-20 19:54 | 64.41221 | 40.79751 | 11258 ft | 335 kts | 63° |
| 2026-04-20 19:54 | 64.42150 | 40.84587 | 11095 ft | 323 kts | 63° |
| 2026-04-20 19:55 | 64.43047 | 40.89263 | 10949 ft | 313 kts | 64° |
| 2026-04-20 19:55 | 64.43869 | 40.93840 | 10822 ft | 303 kts | 65° |
| 2026-04-20 19:55 | 64.44628 | 40.98295 | 10695 ft | 293 kts | 66° |
| 2026-04-20 19:55 | 64.45351 | 41.02596 | 10571 ft | 279 kts | 66° |
| 2026-04-20 19:56 | 64.45813 | 41.05377 | 10453 ft | 270 kts | 66° |
| 2026-04-20 19:56 | 64.46689 | 41.10670 | 9951 ft | 263 kts | 66° |
| 2026-04-20 19:56 | 64.47345 | 41.14624 | 9458 ft | 263 kts | 66° |
| 2026-04-20 19:56 | 64.48002 | 41.18567 | 8972 ft | 261 kts | 66° |
| 2026-04-20 19:57 | 64.48447 | 41.21224 | 8446 ft | 267 kts | 66° |
| 2026-04-20 19:57 | 64.49152 | 41.25370 | 7504 ft | 282 kts | 66° |
| 2026-04-20 19:57 | 64.49894 | 41.29671 | 6613 ft | 293 kts | 66° |
| 2026-04-20 19:57 | 64.50651 | 41.33995 | 6289 ft | 281 kts | 65° |
| 2026-04-20 19:58 | 64.51671 | 41.37648 | 6124 ft | 262 kts | 41° |
| 2026-04-20 19:58 | 64.53196 | 41.39615 | 5921 ft | 248 kts | 13° |
| 2026-04-20 19:58 | 64.54892 | 41.39590 | 5486 ft | 246 kts | 344° |
| 2026-04-20 19:58 | 64.56347 | 41.37561 | 5001 ft | 248 kts | 312° |
| 2026-04-20 19:59 | 64.57105 | 41.33976 | 4548 ft | 250 kts | 284° |
| 2026-04-20 19:59 | 64.57372 | 41.30063 | 4352 ft | 243 kts | 278° |
| 2026-04-20 19:59 | 64.57552 | 41.26134 | 4082 ft | 243 kts | 277° |
| 2026-04-20 19:59 | 64.57710 | 41.22368 | 3974 ft | 225 kts | 277° |
| 2026-04-20 20:00 | 64.57860 | 41.18879 | 3835 ft | 208 kts | 277° |
| 2026-04-20 20:00 | 64.58002 | 41.15665 | 3711 ft | 193 kts | 277° |
| 2026-04-20 20:00 | 64.58136 | 41.12659 | 3466 ft | 182 kts | 277° |
| 2026-04-20 20:00 | 64.58263 | 41.09831 | 3229 ft | 170 kts | 277° |
| 2026-04-20 20:01 | 64.58378 | 41.07256 | 3037 ft | 154 kts | 277° |
| 2026-04-20 20:01 | 64.58487 | 41.04859 | 2799 ft | 146 kts | 277° |
| 2026-04-20 20:01 | 64.58595 | 41.02484 | 2589 ft | 146 kts | 277° |
| 2026-04-20 20:01 | 64.58702 | 41.00133 | 2387 ft | 146 kts | 277° |
| 2026-04-20 20:02 | 64.58808 | 40.97816 | 2178 ft | 146 kts | 277° |
| 2026-04-20 20:02 | 64.58916 | 40.95445 | 1966 ft | 145 kts | 277° |
| 2026-04-20 20:02 | 64.59022 | 40.93153 | 1777 ft | 144 kts | 277° |
| 2026-04-20 20:02 | 64.59128 | 40.90838 | 1558 ft | 143 kts | 277° |
| 2026-04-20 20:03 | 64.59235 | 40.88540 | 1360 ft | 142 kts | 277° |
| 2026-04-20 20:03 | 64.59341 | 40.86256 | 1153 ft | 142 kts | 277° |
| 2026-04-20 20:03 | 64.59450 | 40.83942 | 935 ft | 141 kts | 277° |
| 2026-04-20 20:03 | 64.59555 | 40.81711 | 733 ft | 139 kts | 276° |
| 2026-04-20 20:04 | 64.59655 | 40.79531 | 522 ft | 133 kts | 276° |
| 2026-04-20 20:04 | 64.59757 | 40.77373 | 336 ft | 134 kts | 276° |
| 2026-04-20 20:04 | 64.59859 | 40.75212 | 174 ft | 135 kts | 276° |
| 2026-04-20 20:04 | 64.59960 | 40.73053 | 52 ft | 129 kts | 275° |
| 2026-04-20 20:05 | 64.60046 | 40.71252 | 50 ft | 94 kts | 274° |
| 2026-04-20 20:05 | 64.60114 | 40.70029 | 43 ft | 58 kts | 276° |
| 2026-04-20 20:05 | 64.60126 | 40.69750 | 44 ft | 2 kts | 275° |
| 2026-04-20 20:05 | 64.60139 | 40.69370 | 43 ft | 62 kts | 274° |
| 2026-04-20 20:06 | 64.60070 | 40.69044 | 41 ft | 12 kts | 175° |
| 2026-04-20 20:06 | 64.59996 | 40.69035 | 41 ft | 0 kts | 186° |
| 2026-04-20 20:07 | 64.59977 | 40.69031 | 41 ft | 6 kts | 183° |
| 2026-04-20 20:07 | 64.59941 | 40.69118 | 42 ft | 11 kts | 104° |
| 2026-04-20 20:07 | 64.59930 | 40.69292 | 42 ft | 11 kts | 95° |
| 2026-04-20 20:07 | 64.59923 | 40.69478 | 43 ft | 14 kts | 96° |
| 2026-04-20 20:08 | 64.59910 | 40.69749 | 44 ft | 19 kts | 95° |
| 2026-04-20 20:08 | 64.59896 | 40.70032 | 41 ft | 16 kts | 97° |
| 2026-04-20 20:08 | 64.59886 | 40.70278 | 45 ft | 15 kts | 95° |
| 2026-04-20 20:08 | 64.59872 | 40.70512 | 46 ft | 14 kts | 96° |
| 2026-04-20 20:09 | 64.59862 | 40.70737 | 47 ft | 14 kts | 96° |
| 2026-04-20 20:09 | 64.59851 | 40.70952 | 47 ft | 13 kts | 96° |
| 2026-04-20 20:09 | 64.59832 | 40.71151 | 46 ft | 13 kts | 137° |
| 2026-04-20 20:09 | 64.59746 | 40.71162 | 48 ft | 13 kts | 156° |
| 2026-04-20 20:10 | 64.59728 | 40.71243 | 48 ft | 5 kts | 106° |
| 2026-04-20 20:10 | 64.59722 | 40.71330 | 48 ft | 7 kts | 99° |
| 2026-04-20 20:10 | 64.59677 | 40.71396 | 49 ft | 10 kts | 179° |
| 2026-04-20 20:10 | 64.59671 | 40.71397 | 49 ft | 0 kts | 178° |